Time;durP1;ratioP1;P1;durP2;ratioP2;P2;SDS_P1;SDS_P2;PMS_P1;PMS_P2;Temp;Humidity;BMP_temperature;BMP_pressure;BME280_temperature;BME280_humidity;BME280_pressure;Samples;Min_cycle;Max_cycle;Signal;HPM_P1;HPM_P2
2022/08/12 00:42:59;;;;;;;1.48;1.20;;;;;27.80;101904.00;;;;5039044;28;20669;-78
2022/08/12 00:46:29;;;;;;;1.73;1.50;;;;;27.80;101897.00;;;;5047793;28;20208;-78
2022/08/12 00:48:14;;;;;;;2.42;1.70;;;;;27.80;101901.00;;;;5047817;28;20199;-78
2022/08/12 00:50:45;;;;;;;1.77;1.30;;;;;27.70;101903.00;;;;5047893;28;20196;-78
2022/08/12 00:53:13;;;;;;;2.13;1.83;;;;;27.70;101889.00;;;;5047171;28;20202;-78
2022/08/12 00:55:45;;;;;;;1.67;1.45;;;;;27.70;101897.00;;;;5047513;28;20694;-77
2022/08/12 00:58:16;;;;;;;2.03;1.75;;;;;27.70;101898.00;;;;5040981;28;20259;-78
2022/08/12 01:00:44;;;;;;;1.77;1.58;;;;;27.70;101897.00;;;;5028363;28;20203;-76
2022/08/12 01:03:18;;;;;;;3.45;1.75;;;;;27.70;101896.00;;;;5040392;28;20198;-76
2022/08/12 01:11:31;;;;;;;3.65;1.95;;;;;27.60;101898.00;;;;5042478;28;20214;-77
2022/08/12 01:14:01;;;;;;;2.17;1.55;;;;;27.60;101889.00;;;;5043643;28;20207;-77
2022/08/12 01:16:28;;;;;;;4.47;1.88;;;;;27.60;101886.00;;;;5028374;28;20731;-77
2022/08/12 01:18:57;;;;;;;2.05;1.27;;;;;27.60;101892.00;;;;5045890;28;20666;-77
2022/08/12 01:22:02;;;;;;;1.85;1.70;;;;;27.40;101892.00;;;;5047602;28;20284;-77
2022/08/12 01:24:48;;;;;;;4.50;1.85;;;;;27.40;101901.00;;;;5048079;28;20226;-77
2022/08/12 01:27:17;;;;;;;1.65;1.52;;;;;27.50;101890.00;;;;5047808;28;20211;-77
2022/08/12 01:29:47;;;;;;;2.08;1.45;;;;;27.50;101892.00;;;;5046706;28;20200;-76
2022/08/12 01:32:15;;;;;;;4.35;1.90;;;;;27.50;101890.00;;;;5045055;28;20291;-76
2022/08/12 01:34:53;;;;;;;1.70;1.60;;;;;27.40;101895.00;;;;5047857;28;20227;-77
2022/08/12 01:37:24;;;;;;;2.50;1.98;;;;;27.40;101894.00;;;;5046747;28;20198;-76
2022/08/12 01:39:55;;;;;;;2.70;2.00;;;;;27.40;101886.00;;;;5047720;28;20555;-77
2022/08/12 01:42:24;;;;;;;2.35;1.52;;;;;27.40;101887.00;;;;5047013;28;20227;-76
2022/08/12 01:44:52;;;;;;;2.40;2.00;;;;;27.40;101888.00;;;;5047635;28;20211;-76
2022/08/12 01:47:33;;;;;;;4.38;2.00;;;;;27.30;101886.00;;;;5046355;28;20265;-77
2022/08/12 01:50:17;;;;;;;2.38;1.77;;;;;27.20;101884.00;;;;5033220;28;20750;-77
2022/08/12 01:52:55;;;;;;;2.42;1.85;;;;;27.30;101881.00;;;;5036127;28;20674;-76
2022/08/12 01:55:27;;;;;;;1.83;1.63;;;;;27.30;101880.00;;;;5027414;28;20223;-76
2022/08/12 01:58:06;;;;;;;4.10;1.48;;;;;27.20;101886.00;;;;5037120;28;20319;-77
2022/08/12 02:00:47;;;;;;;2.42;1.67;;;;;27.20;101883.00;;;;5046591;28;20198;-77
2022/08/12 02:03:27;;;;;;;1.70;1.60;;;;;27.20;101876.00;;;;5047057;28;20192;-77
2022/08/12 02:11:52;;;;;;;3.20;1.77;;;;;27.10;101876.00;;;;5050280;28;20230;-76
2022/08/12 02:14:35;;;;;;;2.63;1.60;;;;;27.10;101870.00;;;;5046725;28;20223;-77
2022/08/12 02:17:22;;;;;;;3.78;1.77;;;;;27.10;101871.00;;;;5050551;28;20693;-76
2022/08/12 02:20:04;;;;;;;1.63;1.52;;;;;27.00;101874.00;;;;5050790;28;20674;-77
2022/08/12 02:22:37;;;;;;;3.58;2.05;;;;;27.10;101871.00;;;;5049055;28;20192;-76
2022/08/12 02:25:08;;;;;;;2.05;1.38;;;;;27.00;101865.00;;;;5041619;28;20200;-77
2022/08/12 02:27:39;;;;;;;2.00;1.70;;;;;27.00;101863.00;;;;5050769;28;20203;-77
2022/08/12 02:30:09;;;;;;;2.80;1.90;;;;;27.00;101857.00;;;;5050796;28;20199;-76
2022/08/12 02:32:39;;;;;;;3.58;1.80;;;;;27.00;101856.00;;;;5049476;28;20192;-76
2022/08/12 02:35:10;;;;;;;3.80;1.92;;;;;26.90;101852.00;;;;5049995;28;20254;-77
2022/08/12 02:37:39;;;;;;;1.50;1.40;;;;;26.90;101843.00;;;;5049642;28;20977;-77
2022/08/12 02:40:09;;;;;;;2.30;2.10;;;;;26.90;101845.00;;;;5043246;28;20201;-77
2022/08/12 02:42:43;;;;;;;2.00;1.80;;;;;26.90;101844.00;;;;5038030;28;20203;-77
2022/08/12 02:45:14;;;;;;;2.95;1.95;;;;;26.90;101843.00;;;;5050019;28;20595;-76
2022/08/12 02:47:42;;;;;;;2.78;1.90;;;;;26.90;101850.00;;;;5049386;28;20195;-77
2022/08/12 02:50:13;;;;;;;3.72;2.08;;;;;26.80;101848.00;;;;5050201;28;20635;-77
2022/08/12 02:52:41;;;;;;;2.80;1.80;;;;;26.80;101849.00;;;;5049553;28;20208;-77
2022/08/12 02:55:17;;;;;;;2.20;1.80;;;;;26.70;101843.00;;;;5050002;28;20219;-77
2022/08/12 02:57:47;;;;;;;2.20;1.80;;;;;26.70;101848.00;;;;5045863;28;20314;-77
2022/08/12 03:00:17;;;;;;;1.70;1.55;;;;;26.70;101847.00;;;;5050416;28;20210;-77
2022/08/12 03:02:46;;;;;;;3.30;2.25;;;;;26.70;101843.00;;;;5050090;28;20218;-76
2022/08/12 03:05:15;;;;;;;3.30;2.42;;;;;26.70;101841.00;;;;5050171;28;20653;-77
2022/08/12 03:07:49;;;;;;;3.00;1.98;;;;;26.60;101847.00;;;;5049617;28;20303;-77
2022/08/12 03:10:21;;;;;;;2.45;2.22;;;;;26.60;101847.00;;;;5049670;28;20217;-77
2022/08/12 03:12:52;;;;;;;3.13;1.80;;;;;26.50;101841.00;;;;5049491;28;20198;-77
2022/08/12 03:15:22;;;;;;;2.58;1.88;;;;;26.50;101841.00;;;;5040359;28;20310;-76
2022/08/12 03:17:54;;;;;;;2.67;2.17;;;;;26.50;101845.00;;;;5048315;28;20557;-77
2022/08/12 03:20:23;;;;;;;2.75;2.13;;;;;26.50;101843.00;;;;5049907;28;20666;-78
2022/08/12 03:22:53;;;;;;;2.53;2.17;;;;;26.50;101850.00;;;;5049563;28;20601;-78
2022/08/12 03:25:25;;;;;;;3.28;2.13;;;;;26.50;101838.00;;;;5048768;28;20192;-78
2022/08/12 03:27:56;;;;;;;2.45;1.92;;;;;26.40;101843.00;;;;5049737;28;20692;-78
2022/08/12 03:30:25;;;;;;;2.67;2.03;;;;;26.40;101841.00;;;;5048061;28;20211;-79
2022/08/12 03:32:53;;;;;;;2.38;1.92;;;;;26.40;101838.00;;;;5038388;28;20204;-78
2022/08/12 03:35:26;;;;;;;4.32;2.03;;;;;26.40;101837.00;;;;5049176;28;20234;-78
2022/08/12 03:37:56;;;;;;;2.63;2.22;;;;;26.40;101836.00;;;;5050224;28;20192;-75
2022/08/12 04:02:45;;;;;;;2.25;2.05;;;;;26.10;101825.00;;;;5048048;28;20685;-77
2022/08/12 04:05:19;;;;;;;2.28;2.05;;;;;26.00;101823.00;;;;5041691;28;20575;-77
2022/08/12 04:07:47;;;;;;;3.65;2.30;;;;;26.00;101839.00;;;;5046291;28;20195;-77
2022/08/12 04:10:15;;;;;;;2.63;2.17;;;;;26.00;101831.00;;;;5049428;28;20650;-76
2022/08/12 04:15:31;;;;;;;3.58;2.22;;;;;25.90;101836.00;;;;5044331;28;20282;-77
2022/08/12 04:17:59;;;;;;;3.47;2.70;;;;;25.90;101833.00;;;;5047960;28;20669;-77
2022/08/12 04:20:26;;;;;;;3.70;2.53;;;;;25.90;101824.00;;;;5048227;28;20203;-77
2022/08/12 04:22:54;;;;;;;5.70;2.65;;;;;25.90;101832.00;;;;5037123;28;20558;-77
2022/08/12 04:25:27;;;;;;;3.63;2.28;;;;;25.90;101836.00;;;;5048170;28;20199;-77
2022/08/12 04:27:54;;;;;;;2.30;2.10;;;;;25.90;101831.00;;;;5046724;28;20286;-77
2022/08/12 04:30:22;;;;;;;4.57;2.40;;;;;25.90;101833.00;;;;5047884;28;20191;-77
2022/08/12 04:32:52;;;;;;;5.15;2.55;;;;;25.80;101832.00;;;;5047880;28;20195;-77
2022/08/12 04:35:20;;;;;;;5.13;2.53;;;;;25.80;101831.00;;;;5047383;28;20238;-77
2022/08/12 04:37:53;;;;;;;4.85;2.60;;;;;25.80;101832.00;;;;5047457;28;20622;-77
2022/08/12 04:40:22;;;;;;;3.35;2.42;;;;;25.80;101832.00;;;;5041547;28;20548;-77
2022/08/12 04:42:50;;;;;;;3.22;2.65;;;;;25.80;101822.00;;;;5048096;28;20207;-77
2022/08/12 04:45:18;;;;;;;4.53;2.58;;;;;25.80;101821.00;;;;5047512;28;20195;-77
2022/08/12 04:47:46;;;;;;;12.60;3.40;;;;;25.70;101819.00;;;;5048580;28;20662;-77
2022/08/12 04:50:16;;;;;;;2.92;2.50;;;;;25.70;101819.00;;;;5042117;28;20198;-77
2022/08/12 04:52:43;;;;;;;3.45;2.70;;;;;25.70;101827.00;;;;5048283;28;20665;-77
2022/08/12 04:55:11;;;;;;;4.30;2.78;;;;;25.70;101828.00;;;;5047846;28;20227;-77
2022/08/12 04:57:38;;;;;;;4.65;2.63;;;;;25.70;101830.00;;;;5035225;28;20243;-77
2022/08/12 05:00:09;;;;;;;2.70;2.25;;;;;25.70;101833.00;;;;5047757;28;20203;-77
2022/08/12 05:02:36;;;;;;;2.53;2.30;;;;;25.70;101835.00;;;;5047722;28;20212;-77
2022/08/12 05:05:07;;;;;;;3.03;2.08;;;;;25.70;101833.00;;;;5048125;28;20253;-77
2022/08/12 05:07:36;;;;;;;3.63;2.67;;;;;25.70;101833.00;;;;5046922;28;20758;-77
2022/08/12 05:10:04;;;;;;;3.78;2.60;;;;;25.80;101827.00;;;;5047877;28;20196;-77
2022/08/12 05:12:36;;;;;;;3.95;2.10;;;;;25.80;101831.00;;;;5046439;28;20195;-77
2022/08/12 05:15:05;;;;;;;3.72;2.50;;;;;25.80;101831.00;;;;5045476;28;20198;-77
2022/08/12 05:17:32;;;;;;;2.22;2.03;;;;;25.90;101833.00;;;;5046525;28;20196;-77
2022/08/12 05:19:59;;;;;;;2.70;2.50;;;;;25.90;101830.00;;;;5047157;28;20206;-77
2022/08/12 05:22:27;;;;;;;3.45;2.78;;;;;25.90;101833.00;;;;5047676;28;20278;-77
2022/08/12 05:24:56;;;;;;;3.28;2.30;;;;;25.90;101828.00;;;;5047071;28;20689;-77
2022/08/12 05:27:23;;;;;;;5.05;2.75;;;;;26.00;101832.00;;;;5047334;28;20195;-77
2022/08/12 05:29:51;;;;;;;3.05;2.72;;;;;26.00;101833.00;;;;5043719;28;20199;-77
2022/08/12 05:32:20;;;;;;;4.28;2.50;;;;;26.00;101836.00;;;;5046918;28;20214;-77
2022/08/12 05:34:47;;;;;;;2.75;2.55;;;;;26.10;101832.00;;;;5046750;28;20682;-77
2022/08/12 05:37:15;;;;;;;3.28;2.95;;;;;26.10;101824.00;;;;5046693;28;20215;-77
2022/08/12 05:39:42;;;;;;;4.38;2.70;;;;;26.10;101826.00;;;;5048616;28;20192;-77
2022/08/12 05:42:11;;;;;;;3.20;2.47;;;;;26.20;101825.00;;;;5051014;28;20203;-77
2022/08/12 05:44:38;;;;;;;2.80;2.60;;;;;26.20;101829.00;;;;5051442;28;20226;-77
2022/08/12 05:47:06;;;;;;;4.78;3.20;;;;;26.30;101831.00;;;;5048328;28;20212;-77
2022/08/12 05:49:39;;;;;;;3.00;2.60;;;;;26.30;101842.00;;;;5050881;28;20249;-77
2022/08/12 05:52:07;;;;;;;3.70;2.45;;;;;26.40;101846.00;;;;5051395;28;20278;-77
2022/08/12 05:54:40;;;;;;;4.00;3.08;;;;;26.40;101849.00;;;;5051335;28;20269;-77
2022/08/12 05:57:07;;;;;;;3.13;2.83;;;;;26.50;101847.00;;;;5050568;28;20314;-77
2022/08/12 05:59:37;;;;;;;2.97;2.33;;;;;26.50;101850.00;;;;5051020;28;20195;-77
2022/08/12 06:02:06;;;;;;;2.83;2.38;;;;;26.60;101851.00;;;;5050305;28;20200;-77
2022/08/12 06:04:34;;;;;;;3.22;2.88;;;;;26.70;101855.00;;;;5041347;28;20208;-76
2022/08/12 06:07:01;;;;;;;4.65;2.40;;;;;26.70;101850.00;;;;5032930;28;20714;-76
2022/08/12 06:09:29;;;;;;;2.83;2.33;;;;;26.80;101848.00;;;;5050639;28;20669;-77
2022/08/12 06:11:57;;;;;;;3.53;2.80;;;;;26.90;101860.00;;;;5050423;28;20253;-77
2022/08/12 06:14:24;;;;;;;2.72;2.40;;;;;26.90;101857.00;;;;5047094;28;20203;-77
2022/08/12 06:16:54;;;;;;;2.45;2.25;;;;;27.00;101854.00;;;;5050535;28;20689;-77
2022/08/12 06:19:21;;;;;;;5.03;3.00;;;;;27.00;101857.00;;;;5050471;28;20191;-77
2022/08/12 06:21:48;;;;;;;4.28;2.55;;;;;27.10;101856.00;;;;5039033;28;20208;-77
2022/08/12 06:24:22;;;;;;;3.00;2.70;;;;;27.10;101857.00;;;;5050179;28;20192;-76
2022/08/12 06:26:50;;;;;;;3.10;2.80;;;;;27.20;101855.00;;;;5050105;28;20280;-77
2022/08/12 06:29:19;;;;;;;3.70;2.80;;;;;27.30;101857.00;;;;5050530;28;20610;-77
2022/08/12 06:31:50;;;;;;;2.72;2.20;;;;;27.30;101856.00;;;;5050629;28;20241;-77
2022/08/12 06:34:19;;;;;;;3.13;2.40;;;;;27.40;101850.00;;;;5049325;28;20269;-77
2022/08/12 06:36:47;;;;;;;2.63;2.42;;;;;27.50;101852.00;;;;5050565;28;20227;-77
2022/08/12 06:39:15;;;;;;;3.03;2.22;;;;;27.50;101855.00;;;;5034985;28;20223;-76
2022/08/12 06:44:31;;;;;;;3.85;2.67;;;;;27.70;101862.00;;;;5015738;28;20349;-77
2022/08/12 06:46:58;;;;;;;4.05;3.30;;;;;27.80;101858.00;;;;5049604;28;20203;-76
2022/08/12 06:49:32;;;;;;;4.32;3.13;;;;;27.80;101859.00;;;;5030153;28;20223;-77
2022/08/12 06:51:59;;;;;;;4.18;3.15;;;;;27.90;101854.00;;;;5033792;28;20195;-76
2022/08/12 06:54:26;;;;;;;3.50;2.90;;;;;28.00;101860.00;;;;5048822;28;20191;-77
2022/08/12 06:56:54;;;;;;;5.00;2.70;;;;;28.10;101851.00;;;;5042360;28;20223;-77
2022/08/12 06:59:21;;;;;;;4.25;2.70;;;;;28.10;101850.00;;;;5049189;28;20215;-77
2022/08/12 07:01:49;;;;;;;3.67;2.78;;;;;28.20;101851.00;;;;5049404;28;20196;-77
2022/08/12 07:04:16;;;;;;;3.30;3.00;;;;;28.30;101842.00;;;;5049807;28;20206;-77
2022/08/12 07:06:45;;;;;;;5.38;2.92;;;;;28.40;101838.00;;;;5049587;28;20216;-77
2022/08/12 07:09:13;;;;;;;3.47;3.17;;;;;28.40;101837.00;;;;5050146;28;20206;-76
2022/08/12 07:11:41;;;;;;;4.63;2.63;;;;;28.60;101836.00;;;;5048269;28;20199;-77
2022/08/12 07:14:09;;;;;;;3.63;2.17;;;;;28.60;101837.00;;;;5049880;28;20206;-77
2022/08/12 07:17:00;;;;;;;3.25;2.60;;;;;28.70;101838.00;;;;5049183;28;20234;-77
2022/08/12 07:19:28;;;;;;;3.10;2.50;;;;;28.80;101841.00;;;;5029731;28;20211;-76
2022/08/12 07:22:00;;;;;;;4.70;2.88;;;;;28.90;101836.00;;;;5031783;28;20208;-77
2022/08/12 07:24:27;;;;;;;6.07;3.42;;;;;29.10;101844.00;;;;5049452;28;20196;-77
2022/08/12 07:26:54;;;;;;;4.70;2.90;;;;;29.20;101834.00;;;;5048606;28;20932;-77
2022/08/12 07:29:24;;;;;;;4.50;2.33;;;;;29.20;101838.00;;;;5045743;28;20200;-77
2022/08/12 07:31:52;;;;;;;21.45;3.28;;;;;29.30;101842.00;;;;5049516;28;20192;-77
2022/08/12 07:34:19;;;;;;;3.28;2.83;;;;;29.50;101848.00;;;;5040350;28;20207;-77
2022/08/12 07:36:47;;;;;;;4.63;2.75;;;;;29.60;101841.00;;;;5032167;28;20223;-76
2022/08/12 07:39:16;;;;;;;4.88;2.65;;;;;29.70;101846.00;;;;5049521;28;20195;-77
2022/08/12 07:41:44;;;;;;;3.72;2.55;;;;;29.80;101843.00;;;;5048969;28;20207;-77
2022/08/12 07:44:12;;;;;;;2.75;2.40;;;;;30.00;101848.00;;;;5049427;28;20203;-77
2022/08/12 07:46:42;;;;;;;4.78;2.58;;;;;30.10;101849.00;;;;5038914;28;20204;-77
2022/08/12 07:49:12;;;;;;;3.67;2.95;;;;;30.20;101857.00;;;;5048659;28;20553;-76
2022/08/12 07:51:40;;;;;;;4.07;2.15;;;;;30.30;101859.00;;;;5048593;28;20202;-77
2022/08/12 07:54:10;;;;;;;4.38;2.85;;;;;30.50;101864.00;;;;5048786;28;20203;-78
2022/08/12 07:56:41;;;;;;;5.68;2.75;;;;;30.60;101869.00;;;;5048637;28;20761;-77
2022/08/12 07:59:09;;;;;;;3.97;2.35;;;;;30.70;101879.00;;;;5048353;28;20222;-77
2022/08/12 08:01:37;;;;;;;5.97;3.05;;;;;30.80;101878.00;;;;5048223;28;20200;-78
2022/08/12 08:06:51;;;;;;;2.67;2.38;;;;;31.00;101870.00;;;;5048772;28;20280;-78
2022/08/12 08:09:21;;;;;;;3.20;2.50;;;;;31.10;101863.00;;;;5048163;28;20282;-77
2022/08/12 08:14:35;;;;;;;2.55;2.35;;;;;31.40;101870.00;;;;5047898;28;20202;-77
2022/08/12 08:17:05;;;;;;;3.70;2.75;;;;;31.50;101872.00;;;;5048529;28;20302;-78
2022/08/12 08:19:32;;;;;;;2.97;2.67;;;;;31.60;101874.00;;;;5047069;28;20192;-77
2022/08/12 08:21:59;;;;;;;4.65;2.80;;;;;31.80;101875.00;;;;5031399;28;20207;-77
2022/08/12 08:24:30;;;;;;;2.70;2.25;;;;;31.90;101864.00;;;;5048571;28;20207;-77
2022/08/12 08:26:59;;;;;;;2.92;2.35;;;;;32.10;101869.00;;;;5048594;28;20201;-77
2022/08/12 08:29:34;;;;;;;2.17;1.98;;;;;32.20;101863.00;;;;5048294;28;20206;-77
2022/08/12 08:32:03;;;;;;;2.70;2.50;;;;;32.40;101875.00;;;;5048228;28;20198;-78
2022/08/12 08:34:30;;;;;;;3.55;2.17;;;;;32.50;101871.00;;;;5047811;28;20230;-78
2022/08/12 08:36:59;;;;;;;2.53;2.17;;;;;32.60;101875.00;;;;5047454;28;20273;-77
2022/08/12 08:39:27;;;;;;;4.07;2.53;;;;;32.80;101879.00;;;;5048063;28;20195;-77
2022/08/12 08:44:41;;;;;;;4.40;2.28;;;;;33.10;101873.00;;;;5048132;28;20284;-78
2022/08/12 08:47:11;;;;;;;3.78;2.10;;;;;33.20;101876.00;;;;5047835;28;20202;-78
2022/08/12 08:49:39;;;;;;;2.80;2.60;;;;;33.40;101877.00;;;;5047568;28;20689;-78
2022/08/12 08:52:08;;;;;;;6.20;2.38;;;;;33.50;101877.00;;;;5048080;28;20187;-78
2022/08/12 08:54:36;;;;;;;3.47;2.40;;;;;33.60;101878.00;;;;5046752;28;20203;-77
2022/08/12 08:57:06;;;;;;;3.83;2.03;;;;;33.70;101880.00;;;;5047764;28;20586;-77
2022/08/12 08:59:34;;;;;;;2.35;2.15;;;;;33.90;101877.00;;;;5048167;28;20245;-78
2022/08/12 09:02:03;;;;;;;2.58;2.25;;;;;34.00;101879.00;;;;5048470;28;20226;-78
2022/08/12 09:04:30;;;;;;;2.78;2.15;;;;;34.10;101879.00;;;;5049428;28;20585;-78
2022/08/12 09:06:59;;;;;;;5.72;2.00;;;;;34.30;101871.00;;;;5048008;28;20211;-78
2022/08/12 09:09:27;;;;;;;2.92;2.58;;;;;34.40;101880.00;;;;5048137;28;20222;-78
2022/08/12 09:14:42;;;;;;;3.25;2.05;;;;;34.70;101879.00;;;;5046567;28;20266;-79
2022/08/12 09:17:12;;;;;;;2.90;2.47;;;;;34.80;101879.00;;;;5047446;28;20211;-78
2022/08/12 09:19:40;;;;;;;2.00;1.88;;;;;35.00;101882.00;;;;5047661;28;20585;-78
2022/08/12 09:22:07;;;;;;;2.17;1.98;;;;;35.10;101870.00;;;;5047873;28;20574;-79
2022/08/12 09:24:35;;;;;;;2.50;2.08;;;;;35.20;101874.00;;;;5047696;28;20195;-78
2022/08/12 09:27:02;;;;;;;2.33;2.13;;;;;35.40;101870.00;;;;5038844;28;20209;-79
2022/08/12 09:29:31;;;;;;;12.20;2.35;;;;;35.40;101865.00;;;;5030290;28;20562;-79
2022/08/12 09:31:59;;;;;;;3.75;2.40;;;;;35.60;101870.00;;;;5043874;28;20264;-78
2022/08/12 09:34:28;;;;;;;2.28;1.98;;;;;35.70;101872.00;;;;5052941;28;20201;-78
2022/08/12 09:36:56;;;;;;;3.65;2.03;;;;;35.80;101870.00;;;;5046697;28;20230;-79
2022/08/12 09:39:23;;;;;;;2.60;2.22;;;;;35.90;101874.00;;;;5046929;28;20662;-78
2022/08/12 09:45:19;;;;;;;2.63;2.17;;;;;36.00;101875.00;;;;5047667;28;20197;-79
2022/08/12 09:47:27;;;;;;;2.28;1.85;;;;;36.20;101870.00;;;;5047289;28;20226;-80
2022/08/12 09:49:56;;;;;;;2.92;2.03;;;;;36.30;101869.00;;;;5047217;28;20775;-78
2022/08/12 09:52:23;;;;;;;2.90;2.17;;;;;36.40;101870.00;;;;5046854;28;20579;-78
2022/08/12 09:54:50;;;;;;;2.53;1.95;;;;;36.50;101870.00;;;;5047834;28;20203;-78
2022/08/12 09:57:19;;;;;;;4.82;2.20;;;;;36.60;101859.00;;;;5045950;28;20692;-78
2022/08/12 09:59:46;;;;;;;2.45;1.98;;;;;36.70;101853.00;;;;5047362;28;20199;-78
2022/08/12 10:02:13;;;;;;;2.03;1.85;;;;;36.80;101848.00;;;;5040419;28;20206;-78
2022/08/12 10:04:47;;;;;;;1.75;1.65;;;;;36.90;101851.00;;;;5047408;28;20199;-78
2022/08/12 10:07:18;;;;;;;2.63;2.17;;;;;36.90;101848.00;;;;5047213;28;20634;-77
2022/08/12 10:09:45;;;;;;;2.78;1.92;;;;;37.00;101855.00;;;;5047543;28;20564;-76
2022/08/12 10:14:58;;;;;;;3.70;1.90;;;;;37.20;101847.00;;;;5046581;28;20936;-77
2022/08/12 10:17:25;;;;;;;2.17;1.90;;;;;37.30;101843.00;;;;5047146;28;20223;-77
2022/08/12 10:19:52;;;;;;;2.05;1.83;;;;;37.30;101846.00;;;;5034357;28;20212;-76
2022/08/12 10:22:22;;;;;;;1.98;1.80;;;;;37.40;101833.00;;;;5039479;28;20199;-78
2022/08/12 10:30:27;;;;;;;2.30;2.10;;;;;37.60;101830.00;;;;5125475;28;20731;-79
2022/08/12 10:32:58;;;;;;;3.08;2.00;;;;;37.60;101825.00;;;;5124893;28;20657;-78
2022/08/12 10:35:31;;;;;;;2.72;2.30;;;;;37.60;101826.00;;;;5125586;28;20198;-77
2022/08/12 10:38:00;;;;;;;2.97;2.25;;;;;37.70;101813.00;;;;5123227;28;20196;-77
2022/08/12 10:40:29;;;;;;;1.83;1.73;;;;;37.70;101812.00;;;;5125768;28;20205;-78
2022/08/12 10:45:43;;;;;;;4.55;1.85;;;;;37.90;101806.00;;;;5124529;28;20292;-77
2022/08/12 10:48:10;;;;;;;1.98;1.77;;;;;37.90;101801.00;;;;5124438;28;20204;-76
2022/08/12 10:50:39;;;;;;;2.28;1.77;;;;;38.00;101801.00;;;;5125662;28;20192;-77
2022/08/12 10:53:08;;;;;;;4.55;2.05;;;;;38.00;101795.00;;;;5125304;28;20227;-77
2022/08/12 10:55:36;;;;;;;4.32;2.08;;;;;38.10;101789.00;;;;5125753;28;20705;-76
2022/08/12 10:58:04;;;;;;;4.72;1.83;;;;;38.10;101795.00;;;;5125109;28;20196;-77
2022/08/12 11:00:33;;;;;;;1.75;1.65;;;;;38.20;101787.00;;;;5125510;28;20630;-77
2022/08/12 11:03:00;;;;;;;7.60;4.10;;;;;38.20;101786.00;;;;5124974;28;20240;-77
2022/08/12 11:05:33;;;;;;;3.35;2.75;;;;;38.30;101782.00;;;;5125304;28;20199;-78
2022/08/12 11:08:01;;;;;;;2.17;1.98;;;;;38.30;101786.00;;;;5123230;28;20197;-77
2022/08/12 11:10:30;;;;;;;2.50;2.15;;;;;38.30;101782.00;;;;5105243;28;20199;-76
2022/08/12 11:12:59;;;;;;;3.28;2.15;;;;;38.30;101780.00;;;;5105739;28;20280;-77
2022/08/12 11:15:27;;;;;;;2.25;2.05;;;;;38.30;101781.00;;;;5105879;28;20189;-77
2022/08/12 11:17:55;;;;;;;2.58;1.70;;;;;38.30;101775.00;;;;5110072;28;20197;-77
2022/08/12 11:20:23;;;;;;;2.42;1.85;;;;;38.30;101767.00;;;;5115671;28;20197;-77
2022/08/12 11:22:56;;;;;;;4.05;2.05;;;;;38.30;101770.00;;;;5117588;28;20207;-78
2022/08/12 11:25:24;;;;;;;2.97;1.90;;;;;38.40;101766.00;;;;5125731;28;20197;-78
2022/08/12 11:27:51;;;;;;;5.90;2.05;;;;;38.40;101762.00;;;;5112493;28;20240;-77
2022/08/12 11:30:19;;;;;;;2.35;2.05;;;;;38.50;101770.00;;;;5105928;28;20197;-77
2022/08/12 11:32:47;;;;;;;1.80;1.70;;;;;38.50;101767.00;;;;5105559;28;20198;-77
2022/08/12 11:35:15;;;;;;;3.38;2.20;;;;;38.50;101759.00;;;;5111511;28;20209;-77
2022/08/12 11:37:42;;;;;;;2.20;2.00;;;;;38.50;101760.00;;;;5099603;28;20200;-77
2022/08/12 11:40:10;;;;;;;2.22;1.92;;;;;38.50;101759.00;;;;5110016;28;20200;-79
2022/08/12 11:42:37;;;;;;;2.13;1.90;;;;;38.60;101758.00;;;;5109770;28;20189;-77
2022/08/12 11:45:05;;;;;;;4.28;2.13;;;;;38.60;101749.00;;;;5090455;28;20202;-77
2022/08/12 11:47:32;;;;;;;2.85;2.22;;;;;38.60;101747.00;;;;5091711;28;20232;-77
2022/08/12 11:50:01;;;;;;;2.50;1.92;;;;;38.50;101742.00;;;;5090477;28;20216;-77
2022/08/12 11:52:28;;;;;;;2.80;1.52;;;;;38.60;101745.00;;;;5090585;28;20220;-77
2022/08/12 11:54:57;;;;;;;1.90;1.80;;;;;38.60;101744.00;;;;5090873;28;20198;-77
2022/08/12 11:57:24;;;;;;;3.40;2.00;;;;;38.50;101739.00;;;;5107659;28;20284;-78
2022/08/12 11:59:51;;;;;;;4.43;2.00;;;;;38.50;101741.00;;;;5111911;28;20200;-76
2022/08/12 12:02:19;;;;;;;2.88;2.05;;;;;38.50;101741.00;;;;5095319;28;20284;-76
2022/08/12 12:04:46;;;;;;;3.40;2.30;;;;;38.50;101735.00;;;;5091494;28;20198;-77
2022/08/12 12:07:15;;;;;;;2.10;2.00;;;;;38.50;101730.00;;;;5105005;28;20229;-78
2022/08/12 12:09:42;;;;;;;2.78;2.10;;;;;38.50;101729.00;;;;5108637;28;20958;-78
2022/08/12 12:12:09;;;;;;;2.38;2.00;;;;;38.50;101717.00;;;;5090466;28;20205;-78
2022/08/12 12:14:37;;;;;;;3.33;2.08;;;;;38.60;101716.00;;;;5102019;28;20215;-78
2022/08/12 12:17:04;;;;;;;2.08;1.88;;;;;38.60;101722.00;;;;5111205;28;20205;-77
2022/08/12 12:19:31;;;;;;;3.35;2.08;;;;;38.60;101721.00;;;;5092222;28;20206;-78
2022/08/12 12:21:58;;;;;;;2.22;2.03;;;;;38.60;101721.00;;;;5109309;28;20586;-77
2022/08/12 12:24:28;;;;;;;3.60;2.15;;;;;38.60;101727.00;;;;5110926;28;20682;-77
2022/08/12 12:26:55;;;;;;;2.08;1.70;;;;;38.60;101719.00;;;;5100370;28;20268;-77
2022/08/12 12:29:22;;;;;;;3.25;2.15;;;;;38.60;101714.00;;;;5090344;28;20664;-78
2022/08/12 12:31:49;;;;;;;5.40;2.20;;;;;38.60;101713.00;;;;5089597;28;20201;-79
2022/08/12 12:34:17;;;;;;;2.92;2.15;;;;;38.60;101704.00;;;;5086226;28;20672;-78
2022/08/12 12:36:47;;;;;;;2.55;1.70;;;;;38.60;101714.00;;;;5086792;28;20193;-77
2022/08/12 12:39:15;;;;;;;2.63;2.35;;;;;38.60;101708.00;;;;5101741;28;20197;-78
2022/08/12 12:41:43;;;;;;;1.80;1.70;;;;;38.50;101713.00;;;;5079929;28;20197;-78
2022/08/12 12:44:10;;;;;;;2.55;2.33;;;;;38.50;101711.00;;;;5089503;28;20200;-77
2022/08/12 12:46:38;;;;;;;4.55;2.28;;;;;38.50;101718.00;;;;5091299;28;20228;-77
2022/08/12 12:49:05;;;;;;;2.03;1.83;;;;;38.50;101714.00;;;;5090039;28;20209;-76
2022/08/12 12:51:32;;;;;;;2.78;2.17;;;;;38.50;101713.00;;;;5093473;28;20937;-78
2022/08/12 12:53:59;;;;;;;2.38;2.17;;;;;38.50;101704.00;;;;5094553;28;20208;-77
2022/08/12 12:56:27;;;;;;;2.20;2.05;;;;;38.50;101700.00;;;;5110814;28;20189;-79
2022/08/12 12:58:55;;;;;;;1.83;1.60;;;;;38.50;101704.00;;;;5110325;28;20213;-77
2022/08/12 13:01:24;;;;;;;5.40;2.17;;;;;38.50;101701.00;;;;5109245;28;20196;-77
2022/08/12 13:03:53;;;;;;;2.60;1.58;;;;;38.50;101695.00;;;;5091281;28;20198;-77
2022/08/12 13:06:24;;;;;;;1.83;1.73;;;;;38.50;101691.00;;;;5093162;28;20233;-79
2022/08/12 13:08:52;;;;;;;4.80;1.77;;;;;38.50;101691.00;;;;5105345;28;20219;-78
2022/08/12 13:11:20;;;;;;;2.78;2.10;;;;;38.40;101695.00;;;;5088690;28;20267;-79
2022/08/12 13:13:48;;;;;;;2.00;1.85;;;;;38.40;101689.00;;;;5089779;28;20672;-77
2022/08/12 13:16:19;;;;;;;2.15;1.90;;;;;38.40;101687.00;;;;5093152;28;20193;-77
2022/08/12 13:18:47;;;;;;;3.55;2.13;;;;;38.40;101678.00;;;;5088858;28;20201;-78
2022/08/12 13:21:16;;;;;;;4.18;1.75;;;;;38.30;101670.00;;;;5092188;28;20189;-78
2022/08/12 13:23:45;;;;;;;2.75;2.17;;;;;38.30;101680.00;;;;5090902;28;20185;-77
2022/08/12 13:26:12;;;;;;;2.13;1.92;;;;;38.30;101682.00;;;;5092946;28;20312;-77
2022/08/12 13:28:44;;;;;;;2.03;1.83;;;;;38.30;101675.00;;;;5089329;28;20205;-77
2022/08/12 13:31:12;;;;;;;2.30;1.95;;;;;38.20;101673.00;;;;5095232;28;20272;-79
2022/08/12 13:33:41;;;;;;;2.42;2.17;;;;;38.20;101671.00;;;;5109865;28;20246;-77
2022/08/12 13:36:09;;;;;;;2.33;2.10;;;;;38.20;101674.00;;;;5091332;28;20194;-79
2022/08/12 13:38:38;;;;;;;2.67;2.08;;;;;38.20;101672.00;;;;5105282;28;20200;-78
2022/08/12 13:41:06;;;;;;;3.60;2.22;;;;;38.10;101668.00;;;;5102963;28;20255;-78
2022/08/12 13:43:33;;;;;;;1.92;1.77;;;;;38.10;101669.00;;;;5088982;28;20198;-78
2022/08/12 13:46:01;;;;;;;3.90;2.10;;;;;38.20;101670.00;;;;5094467;28;20193;-78
2022/08/12 13:48:28;;;;;;;2.90;2.03;;;;;38.30;101671.00;;;;5091543;28;20221;-78
2022/08/12 13:50:57;;;;;;;5.65;2.05;;;;;38.40;101668.00;;;;5090609;28;20726;-78
2022/08/12 13:53:24;;;;;;;2.53;2.33;;;;;38.60;101657.00;;;;5089842;28;20202;-78
2022/08/12 13:55:51;;;;;;;2.35;2.10;;;;;38.70;101662.00;;;;5088385;28;20198;-78
2022/08/12 13:58:21;;;;;;;2.05;1.90;;;;;38.90;101660.00;;;;5095377;28;20217;-78
2022/08/12 14:00:54;;;;;;;2.30;1.92;;;;;39.20;101668.00;;;;5088048;28;20205;-79
2022/08/12 14:03:23;;;;;;;2.45;2.25;;;;;39.30;101655.00;;;;5089809;28;20197;-78
2022/08/12 14:05:50;;;;;;;2.40;2.20;;;;;39.30;101663.00;;;;5094030;28;20270;-78